sensor_id;sensor_type;location;lat;lon;timestamp;P1;durP1;ratioP1;P2;durP2;ratioP2
39620;SDS011;25309;48.686;9.170;2024-02-14T00:00:45;6.97;;;4.50;;
39620;SDS011;25309;48.686;9.170;2024-02-14T00:03:12;7.40;;;4.93;;
39620;SDS011;25309;48.686;9.170;2024-02-14T00:05:40;7.47;;;4.70;;
39620;SDS011;25309;48.686;9.170;2024-02-14T00:08:07;7.27;;;4.67;;
39620;SDS011;25309;48.686;9.170;2024-02-14T00:10:34;6.67;;;4.00;;
39620;SDS011;25309;48.686;9.170;2024-02-14T00:13:01;7.43;;;3.97;;
39620;SDS011;25309;48.686;9.170;2024-02-14T00:15:30;6.73;;;3.63;;
39620;SDS011;25309;48.686;9.170;2024-02-14T00:17:57;5.60;;;3.43;;
39620;SDS011;25309;48.686;9.170;2024-02-14T00:20:24;7.27;;;3.07;;
39620;SDS011;25309;48.686;9.170;2024-02-14T00:22:51;4.70;;;3.00;;
39620;SDS011;25309;48.686;9.170;2024-02-14T00:25:18;5.40;;;3.20;;
39620;SDS011;25309;48.686;9.170;2024-02-14T00:27:46;8.50;;;3.37;;
39620;SDS011;25309;48.686;9.170;2024-02-14T00:30:13;6.33;;;3.60;;
39620;SDS011;25309;48.686;9.170;2024-02-14T00:32:42;4.97;;;2.70;;
39620;SDS011;25309;48.686;9.170;2024-02-14T00:35:09;5.33;;;3.40;;
39620;SDS011;25309;48.686;9.170;2024-02-14T00:37:36;5.73;;;3.00;;
39620;SDS011;25309;48.686;9.170;2024-02-14T00:40:04;7.27;;;3.03;;
39620;SDS011;25309;48.686;9.170;2024-02-14T00:42:32;6.70;;;3.37;;
39620;SDS011;25309;48.686;9.170;2024-02-14T00:45:00;4.30;;;2.80;;
39620;SDS011;25309;48.686;9.170;2024-02-14T00:47:27;5.43;;;2.87;;
39620;SDS011;25309;48.686;9.170;2024-02-14T00:49:55;4.40;;;2.80;;
39620;SDS011;25309;48.686;9.170;2024-02-14T00:52:23;7.13;;;3.60;;
39620;SDS011;25309;48.686;9.170;2024-02-14T00:54:50;5.07;;;3.00;;
39620;SDS011;25309;48.686;9.170;2024-02-14T00:57:17;6.43;;;3.13;;
39620;SDS011;25309;48.686;9.170;2024-02-14T00:59:45;5.43;;;3.00;;
39620;SDS011;25309;48.686;9.170;2024-02-14T01:02:13;6.13;;;2.90;;
39620;SDS011;25309;48.686;9.170;2024-02-14T01:04:39;6.40;;;2.83;;
39620;SDS011;25309;48.686;9.170;2024-02-14T01:07:08;5.10;;;2.90;;
39620;SDS011;25309;48.686;9.170;2024-02-14T01:09:34;6.10;;;3.00;;
39620;SDS011;25309;48.686;9.170;2024-02-14T01:12:02;6.63;;;3.20;;
39620;SDS011;25309;48.686;9.170;2024-02-14T01:14:30;6.53;;;2.80;;
39620;SDS011;25309;48.686;9.170;2024-02-14T01:16:58;7.00;;;3.03;;
39620;SDS011;25309;48.686;9.170;2024-02-14T01:19:24;5.63;;;2.90;;
39620;SDS011;25309;48.686;9.170;2024-02-14T01:21:55;5.43;;;2.50;;
39620;SDS011;25309;48.686;9.170;2024-02-14T01:24:24;4.87;;;2.70;;
39620;SDS011;25309;48.686;9.170;2024-02-14T01:26:53;7.63;;;2.80;;
39620;SDS011;25309;48.686;9.170;2024-02-14T01:29:21;6.43;;;3.10;;
39620;SDS011;25309;48.686;9.170;2024-02-14T01:31:49;6.00;;;2.70;;
39620;SDS011;25309;48.686;9.170;2024-02-14T01:34:16;5.50;;;3.00;;
39620;SDS011;25309;48.686;9.170;2024-02-14T01:36:44;6.80;;;2.97;;
39620;SDS011;25309;48.686;9.170;2024-02-14T01:39:12;5.87;;;3.20;;
39620;SDS011;25309;48.686;9.170;2024-02-14T01:41:43;5.03;;;2.67;;
39620;SDS011;25309;48.686;9.170;2024-02-14T01:44:12;5.10;;;2.70;;
39620;SDS011;25309;48.686;9.170;2024-02-14T01:46:39;5.80;;;2.90;;
39620;SDS011;25309;48.686;9.170;2024-02-14T01:49:06;4.20;;;2.90;;
39620;SDS011;25309;48.686;9.170;2024-02-14T01:51:33;4.53;;;2.80;;
39620;SDS011;25309;48.686;9.170;2024-02-14T01:54:02;4.70;;;2.97;;
39620;SDS011;25309;48.686;9.170;2024-02-14T01:56:29;5.60;;;2.90;;
39620;SDS011;25309;48.686;9.170;2024-02-14T01:58:58;4.80;;;2.90;;
39620;SDS011;25309;48.686;9.170;2024-02-14T02:01:26;5.47;;;3.00;;
39620;SDS011;25309;48.686;9.170;2024-02-14T02:03:53;6.43;;;3.00;;
39620;SDS011;25309;48.686;9.170;2024-02-14T02:06:21;6.40;;;3.00;;
39620;SDS011;25309;48.686;9.170;2024-02-14T02:08:48;5.77;;;2.93;;
39620;SDS011;25309;48.686;9.170;2024-02-14T02:11:15;4.40;;;2.80;;
39620;SDS011;25309;48.686;9.170;2024-02-14T02:13:42;5.90;;;2.70;;
39620;SDS011;25309;48.686;9.170;2024-02-14T02:16:11;5.07;;;3.00;;
39620;SDS011;25309;48.686;9.170;2024-02-14T02:18:39;5.60;;;3.10;;
39620;SDS011;25309;48.686;9.170;2024-02-14T02:21:06;7.63;;;2.93;;
39620;SDS011;25309;48.686;9.170;2024-02-14T02:23:35;4.30;;;2.60;;
39620;SDS011;25309;48.686;9.170;2024-02-14T02:26:02;4.97;;;2.80;;
39620;SDS011;25309;48.686;9.170;2024-02-14T02:28:29;5.70;;;2.90;;
39620;SDS011;25309;48.686;9.170;2024-02-14T02:30:56;6.07;;;2.80;;
39620;SDS011;25309;48.686;9.170;2024-02-14T02:33:23;5.60;;;2.90;;
39620;SDS011;25309;48.686;9.170;2024-02-14T02:35:50;4.70;;;2.87;;
39620;SDS011;25309;48.686;9.170;2024-02-14T02:38:17;5.70;;;2.93;;
39620;SDS011;25309;48.686;9.170;2024-02-14T02:40:47;5.40;;;2.60;;
39620;SDS011;25309;48.686;9.170;2024-02-14T02:43:14;4.93;;;2.80;;
39620;SDS011;25309;48.686;9.170;2024-02-14T02:45:41;6.33;;;2.83;;
39620;SDS011;25309;48.686;9.170;2024-02-14T02:48:08;6.43;;;2.80;;
39620;SDS011;25309;48.686;9.170;2024-02-14T02:50:35;6.10;;;2.67;;
39620;SDS011;25309;48.686;9.170;2024-02-14T02:53:03;4.93;;;2.80;;
39620;SDS011;25309;48.686;9.170;2024-02-14T02:55:30;5.10;;;2.50;;
39620;SDS011;25309;48.686;9.170;2024-02-14T02:57:59;5.37;;;2.70;;
39620;SDS011;25309;48.686;9.170;2024-02-14T03:00:27;4.00;;;2.37;;
39620;SDS011;25309;48.686;9.170;2024-02-14T03:02:54;4.10;;;2.40;;
39620;SDS011;25309;48.686;9.170;2024-02-14T03:05:21;4.07;;;2.47;;
39620;SDS011;25309;48.686;9.170;2024-02-14T03:07:50;4.57;;;2.47;;
39620;SDS011;25309;48.686;9.170;2024-02-14T03:10:19;5.97;;;2.63;;
39620;SDS011;25309;48.686;9.170;2024-02-14T03:12:47;7.67;;;2.67;;
39620;SDS011;25309;48.686;9.170;2024-02-14T03:15:16;6.17;;;2.97;;
39620;SDS011;25309;48.686;9.170;2024-02-14T03:17:44;5.33;;;2.67;;
39620;SDS011;25309;48.686;9.170;2024-02-14T03:20:12;4.50;;;2.63;;
39620;SDS011;25309;48.686;9.170;2024-02-14T03:22:43;5.07;;;2.80;;
39620;SDS011;25309;48.686;9.170;2024-02-14T03:25:16;4.97;;;2.70;;
39620;SDS011;25309;48.686;9.170;2024-02-14T03:27:43;4.27;;;2.90;;
39620;SDS011;25309;48.686;9.170;2024-02-14T03:30:16;5.70;;;3.10;;
39620;SDS011;25309;48.686;9.170;2024-02-14T03:32:45;5.50;;;2.70;;
39620;SDS011;25309;48.686;9.170;2024-02-14T03:35:12;4.43;;;2.70;;
39620;SDS011;25309;48.686;9.170;2024-02-14T03:37:40;5.37;;;3.03;;
39620;SDS011;25309;48.686;9.170;2024-02-14T03:40:09;5.03;;;2.70;;
39620;SDS011;25309;48.686;9.170;2024-02-14T03:42:36;4.37;;;2.40;;
39620;SDS011;25309;48.686;9.170;2024-02-14T03:45:06;7.90;;;3.37;;
39620;SDS011;25309;48.686;9.170;2024-02-14T03:47:36;4.50;;;2.80;;
39620;SDS011;25309;48.686;9.170;2024-02-14T03:50:09;4.20;;;2.47;;
39620;SDS011;25309;48.686;9.170;2024-02-14T03:52:36;4.63;;;2.80;;
39620;SDS011;25309;48.686;9.170;2024-02-14T03:55:03;5.43;;;2.53;;
39620;SDS011;25309;48.686;9.170;2024-02-14T03:57:31;6.03;;;2.97;;
39620;SDS011;25309;48.686;9.170;2024-02-14T03:59:59;5.73;;;2.90;;
39620;SDS011;25309;48.686;9.170;2024-02-14T04:02:39;5.27;;;2.90;;
39620;SDS011;25309;48.686;9.170;2024-02-14T04:05:07;4.93;;;2.90;;
39620;SDS011;25309;48.686;9.170;2024-02-14T04:07:35;4.63;;;2.70;;
39620;SDS011;25309;48.686;9.170;2024-02-14T04:10:04;3.90;;;2.63;;
39620;SDS011;25309;48.686;9.170;2024-02-14T04:12:31;4.57;;;2.67;;
39620;SDS011;25309;48.686;9.170;2024-02-14T04:14:58;5.83;;;2.83;;
39620;SDS011;25309;48.686;9.170;2024-02-14T04:17:25;6.23;;;2.83;;
39620;SDS011;25309;48.686;9.170;2024-02-14T04:19:53;5.93;;;4.40;;
39620;SDS011;25309;48.686;9.170;2024-02-14T04:22:20;5.17;;;3.20;;
39620;SDS011;25309;48.686;9.170;2024-02-14T04:24:47;4.97;;;3.00;;
39620;SDS011;25309;48.686;9.170;2024-02-14T04:27:14;7.00;;;2.97;;
39620;SDS011;25309;48.686;9.170;2024-02-14T04:29:44;4.90;;;2.83;;
39620;SDS011;25309;48.686;9.170;2024-02-14T04:32:11;8.20;;;3.10;;
39620;SDS011;25309;48.686;9.170;2024-02-14T04:34:39;5.13;;;2.87;;
39620;SDS011;25309;48.686;9.170;2024-02-14T04:37:08;4.87;;;3.10;;
39620;SDS011;25309;48.686;9.170;2024-02-14T04:39:40;4.87;;;2.80;;
39620;SDS011;25309;48.686;9.170;2024-02-14T04:42:08;5.03;;;3.00;;
39620;SDS011;25309;48.686;9.170;2024-02-14T04:44:35;5.37;;;2.90;;
39620;SDS011;25309;48.686;9.170;2024-02-14T04:47:02;4.20;;;2.90;;
39620;SDS011;25309;48.686;9.170;2024-02-14T04:49:30;5.60;;;3.23;;
39620;SDS011;25309;48.686;9.170;2024-02-14T04:51:57;5.97;;;3.23;;
39620;SDS011;25309;48.686;9.170;2024-02-14T04:54:26;5.20;;;3.07;;
39620;SDS011;25309;48.686;9.170;2024-02-14T04:56:54;4.33;;;3.20;;
39620;SDS011;25309;48.686;9.170;2024-02-14T04:59:26;3.77;;;2.90;;
39620;SDS011;25309;48.686;9.170;2024-02-14T05:01:53;6.47;;;3.23;;
39620;SDS011;25309;48.686;9.170;2024-02-14T05:04:20;8.03;;;3.27;;
39620;SDS011;25309;48.686;9.170;2024-02-14T05:06:47;5.07;;;2.97;;
39620;SDS011;25309;48.686;9.170;2024-02-14T05:09:15;4.80;;;2.80;;
39620;SDS011;25309;48.686;9.170;2024-02-14T05:11:44;4.80;;;2.43;;
39620;SDS011;25309;48.686;9.170;2024-02-14T05:14:11;4.47;;;2.57;;
39620;SDS011;25309;48.686;9.170;2024-02-14T05:16:38;5.90;;;2.73;;
39620;SDS011;25309;48.686;9.170;2024-02-14T05:19:05;3.30;;;2.30;;
39620;SDS011;25309;48.686;9.170;2024-02-14T05:21:32;4.50;;;2.30;;
39620;SDS011;25309;48.686;9.170;2024-02-14T05:23:59;5.70;;;2.40;;
39620;SDS011;25309;48.686;9.170;2024-02-14T05:26:26;3.77;;;2.10;;
39620;SDS011;25309;48.686;9.170;2024-02-14T05:28:54;3.27;;;1.90;;
39620;SDS011;25309;48.686;9.170;2024-02-14T05:31:21;6.53;;;2.00;;
39620;SDS011;25309;48.686;9.170;2024-02-14T05:33:48;5.67;;;2.23;;
39620;SDS011;25309;48.686;9.170;2024-02-14T05:36:16;3.97;;;2.47;;
39620;SDS011;25309;48.686;9.170;2024-02-14T05:38:43;4.47;;;1.77;;
39620;SDS011;25309;48.686;9.170;2024-02-14T05:41:10;4.43;;;2.33;;
39620;SDS011;25309;48.686;9.170;2024-02-14T05:43:38;4.47;;;2.10;;
39620;SDS011;25309;48.686;9.170;2024-02-14T05:46:06;3.80;;;1.70;;
39620;SDS011;25309;48.686;9.170;2024-02-14T05:48:35;4.00;;;1.93;;
39620;SDS011;25309;48.686;9.170;2024-02-14T05:51:05;3.40;;;1.60;;
39620;SDS011;25309;48.686;9.170;2024-02-14T05:53:33;3.93;;;1.93;;
39620;SDS011;25309;48.686;9.170;2024-02-14T05:56:00;5.33;;;2.30;;
39620;SDS011;25309;48.686;9.170;2024-02-14T05:58:27;4.43;;;2.37;;
39620;SDS011;25309;48.686;9.170;2024-02-14T06:00:55;4.90;;;1.90;;
39620;SDS011;25309;48.686;9.170;2024-02-14T06:03:23;8.67;;;4.03;;
39620;SDS011;25309;48.686;9.170;2024-02-14T06:05:50;4.90;;;2.37;;
39620;SDS011;25309;48.686;9.170;2024-02-14T06:08:17;4.43;;;2.00;;
39620;SDS011;25309;48.686;9.170;2024-02-14T06:10:44;4.27;;;1.90;;
39620;SDS011;25309;48.686;9.170;2024-02-14T06:13:11;4.07;;;1.73;;
39620;SDS011;25309;48.686;9.170;2024-02-14T06:15:38;3.77;;;2.00;;
39620;SDS011;25309;48.686;9.170;2024-02-14T06:18:05;4.27;;;2.10;;
39620;SDS011;25309;48.686;9.170;2024-02-14T06:20:34;4.17;;;2.00;;
39620;SDS011;25309;48.686;9.170;2024-02-14T06:23:01;4.03;;;2.00;;
39620;SDS011;25309;48.686;9.170;2024-02-14T06:25:31;4.43;;;1.90;;
39620;SDS011;25309;48.686;9.170;2024-02-14T06:27:59;3.63;;;2.30;;
39620;SDS011;25309;48.686;9.170;2024-02-14T06:30:26;4.70;;;2.73;;
39620;SDS011;25309;48.686;9.170;2024-02-14T06:32:58;5.40;;;2.63;;
39620;SDS011;25309;48.686;9.170;2024-02-14T06:35:28;4.07;;;2.10;;
39620;SDS011;25309;48.686;9.170;2024-02-14T06:37:58;5.33;;;2.30;;
39620;SDS011;25309;48.686;9.170;2024-02-14T06:40:30;4.60;;;1.80;;
39620;SDS011;25309;48.686;9.170;2024-02-14T06:42:58;3.43;;;1.67;;
39620;SDS011;25309;48.686;9.170;2024-02-14T06:45:27;2.67;;;1.60;;
39620;SDS011;25309;48.686;9.170;2024-02-14T06:47:54;3.47;;;1.80;;
39620;SDS011;25309;48.686;9.170;2024-02-14T06:50:21;4.10;;;1.80;;
39620;SDS011;25309;48.686;9.170;2024-02-14T06:52:48;3.27;;;1.80;;
39620;SDS011;25309;48.686;9.170;2024-02-14T06:55:17;4.43;;;1.60;;
39620;SDS011;25309;48.686;9.170;2024-02-14T06:57:44;3.13;;;1.50;;
39620;SDS011;25309;48.686;9.170;2024-02-14T07:00:11;2.53;;;1.40;;
39620;SDS011;25309;48.686;9.170;2024-02-14T07:02:39;3.77;;;1.40;;
39620;SDS011;25309;48.686;9.170;2024-02-14T07:05:06;3.77;;;1.60;;
39620;SDS011;25309;48.686;9.170;2024-02-14T07:07:35;3.07;;;1.60;;
39620;SDS011;25309;48.686;9.170;2024-02-14T07:10:03;4.17;;;1.53;;
39620;SDS011;25309;48.686;9.170;2024-02-14T07:12:34;3.43;;;1.83;;
39620;SDS011;25309;48.686;9.170;2024-02-14T07:15:02;3.20;;;1.40;;
39620;SDS011;25309;48.686;9.170;2024-02-14T07:17:30;2.93;;;1.70;;
39620;SDS011;25309;48.686;9.170;2024-02-14T07:19:58;3.23;;;1.87;;
39620;SDS011;25309;48.686;9.170;2024-02-14T07:22:25;3.17;;;1.70;;
39620;SDS011;25309;48.686;9.170;2024-02-14T07:24:52;2.77;;;1.40;;
39620;SDS011;25309;48.686;9.170;2024-02-14T07:27:20;3.67;;;1.80;;
39620;SDS011;25309;48.686;9.170;2024-02-14T07:29:48;4.57;;;1.83;;
39620;SDS011;25309;48.686;9.170;2024-02-14T07:32:16;2.87;;;1.40;;
39620;SDS011;25309;48.686;9.170;2024-02-14T07:34:43;2.60;;;1.60;;
39620;SDS011;25309;48.686;9.170;2024-02-14T07:37:10;3.10;;;1.50;;
39620;SDS011;25309;48.686;9.170;2024-02-14T07:39:37;3.33;;;1.40;;
39620;SDS011;25309;48.686;9.170;2024-02-14T07:42:05;2.53;;;1.40;;
39620;SDS011;25309;48.686;9.170;2024-02-14T07:44:32;1.67;;;1.30;;
39620;SDS011;25309;48.686;9.170;2024-02-14T07:47:01;2.93;;;1.20;;
39620;SDS011;25309;48.686;9.170;2024-02-14T07:49:31;3.17;;;1.50;;
39620;SDS011;25309;48.686;9.170;2024-02-14T07:51:58;4.30;;;1.70;;
39620;SDS011;25309;48.686;9.170;2024-02-14T07:54:25;4.20;;;1.73;;
39620;SDS011;25309;48.686;9.170;2024-02-14T07:56:52;2.53;;;1.60;;
39620;SDS011;25309;48.686;9.170;2024-02-14T07:59:19;2.87;;;1.70;;
39620;SDS011;25309;48.686;9.170;2024-02-14T08:01:47;3.53;;;1.47;;
39620;SDS011;25309;48.686;9.170;2024-02-14T08:04:15;3.60;;;1.60;;
39620;SDS011;25309;48.686;9.170;2024-02-14T08:06:44;2.63;;;1.47;;
39620;SDS011;25309;48.686;9.170;2024-02-14T08:09:12;2.33;;;1.33;;
39620;SDS011;25309;48.686;9.170;2024-02-14T08:11:39;3.50;;;1.60;;
39620;SDS011;25309;48.686;9.170;2024-02-14T08:14:06;1.43;;;1.10;;
39620;SDS011;25309;48.686;9.170;2024-02-14T08:16:33;3.70;;;1.40;;
39620;SDS011;25309;48.686;9.170;2024-02-14T08:19:01;3.13;;;1.40;;
39620;SDS011;25309;48.686;9.170;2024-02-14T08:21:30;1.50;;;1.17;;
39620;SDS011;25309;48.686;9.170;2024-02-14T08:23:58;3.87;;;1.43;;
39620;SDS011;25309;48.686;9.170;2024-02-14T08:26:27;2.50;;;1.20;;
39620;SDS011;25309;48.686;9.170;2024-02-14T08:28:55;3.80;;;1.60;;
39620;SDS011;25309;48.686;9.170;2024-02-14T08:31:22;2.93;;;1.70;;
39620;SDS011;25309;48.686;9.170;2024-02-14T08:33:49;2.73;;;1.50;;
39620;SDS011;25309;48.686;9.170;2024-02-14T08:36:16;3.50;;;1.50;;
39620;SDS011;25309;48.686;9.170;2024-02-14T08:38:47;2.53;;;1.30;;
39620;SDS011;25309;48.686;9.170;2024-02-14T08:41:14;2.70;;;1.40;;
39620;SDS011;25309;48.686;9.170;2024-02-14T08:43:41;3.37;;;1.47;;
39620;SDS011;25309;48.686;9.170;2024-02-14T08:46:13;4.00;;;1.70;;
39620;SDS011;25309;48.686;9.170;2024-02-14T08:48:41;2.40;;;1.50;;
39620;SDS011;25309;48.686;9.170;2024-02-14T08:51:14;3.43;;;1.73;;
39620;SDS011;25309;48.686;9.170;2024-02-14T08:53:41;3.37;;;1.40;;
39620;SDS011;25309;48.686;9.170;2024-02-14T08:56:11;3.63;;;1.50;;
39620;SDS011;25309;48.686;9.170;2024-02-14T08:58:38;3.77;;;1.50;;
39620;SDS011;25309;48.686;9.170;2024-02-14T09:01:05;3.37;;;1.40;;
39620;SDS011;25309;48.686;9.170;2024-02-14T09:03:40;2.93;;;1.40;;
39620;SDS011;25309;48.686;9.170;2024-02-14T09:06:09;2.27;;;1.40;;
39620;SDS011;25309;48.686;9.170;2024-02-14T09:08:37;2.47;;;1.40;;
39620;SDS011;25309;48.686;9.170;2024-02-14T09:11:04;2.57;;;1.30;;
39620;SDS011;25309;48.686;9.170;2024-02-14T09:13:33;3.10;;;1.40;;
39620;SDS011;25309;48.686;9.170;2024-02-14T09:16:00;2.53;;;1.20;;
39620;SDS011;25309;48.686;9.170;2024-02-14T09:18:27;3.67;;;1.37;;
39620;SDS011;25309;48.686;9.170;2024-02-14T09:20:54;3.40;;;1.47;;
39620;SDS011;25309;48.686;9.170;2024-02-14T09:23:23;3.13;;;1.13;;
39620;SDS011;25309;48.686;9.170;2024-02-14T09:25:50;2.67;;;1.17;;
39620;SDS011;25309;48.686;9.170;2024-02-14T09:28:17;1.77;;;1.27;;
39620;SDS011;25309;48.686;9.170;2024-02-14T09:30:46;1.67;;;1.10;;
39620;SDS011;25309;48.686;9.170;2024-02-14T09:33:13;1.90;;;1.00;;
39620;SDS011;25309;48.686;9.170;2024-02-14T09:35:41;2.13;;;1.10;;
39620;SDS011;25309;48.686;9.170;2024-02-14T09:38:10;2.60;;;1.30;;
39620;SDS011;25309;48.686;9.170;2024-02-14T09:40:41;2.67;;;1.13;;
39620;SDS011;25309;48.686;9.170;2024-02-14T09:43:09;2.50;;;1.10;;
39620;SDS011;25309;48.686;9.170;2024-02-14T09:45:57;2.10;;;1.20;;
39620;SDS011;25309;48.686;9.170;2024-02-14T09:48:23;1.60;;;1.17;;
39620;SDS011;25309;48.686;9.170;2024-02-14T09:50:53;1.63;;;1.20;;
39620;SDS011;25309;48.686;9.170;2024-02-14T09:53:21;2.37;;;1.20;;
39620;SDS011;25309;48.686;9.170;2024-02-14T09:55:49;3.77;;;1.20;;
39620;SDS011;25309;48.686;9.170;2024-02-14T09:58:17;1.93;;;1.30;;
39620;SDS011;25309;48.686;9.170;2024-02-14T10:00:44;5.47;;;1.30;;
39620;SDS011;25309;48.686;9.170;2024-02-14T10:03:13;1.97;;;1.10;;
39620;SDS011;25309;48.686;9.170;2024-02-14T10:05:41;1.53;;;1.00;;
39620;SDS011;25309;48.686;9.170;2024-02-14T10:08:08;3.00;;;1.30;;
39620;SDS011;25309;48.686;9.170;2024-02-14T10:10:37;2.87;;;1.20;;
39620;SDS011;25309;48.686;9.170;2024-02-14T10:13:04;2.50;;;1.00;;
39620;SDS011;25309;48.686;9.170;2024-02-14T10:15:32;2.87;;;1.20;;
39620;SDS011;25309;48.686;9.170;2024-02-14T10:17:59;1.70;;;1.10;;
39620;SDS011;25309;48.686;9.170;2024-02-14T10:20:28;1.90;;;1.20;;
39620;SDS011;25309;48.686;9.170;2024-02-14T10:23:01;2.17;;;1.20;;
39620;SDS011;25309;48.686;9.170;2024-02-14T10:25:34;2.10;;;1.23;;
39620;SDS011;25309;48.686;9.170;2024-02-14T10:28:03;2.03;;;1.20;;
39620;SDS011;25309;48.686;9.170;2024-02-14T10:30:31;4.77;;;1.30;;
39620;SDS011;25309;48.686;9.170;2024-02-14T10:32:58;1.73;;;1.30;;
39620;SDS011;25309;48.686;9.170;2024-02-14T10:35:40;1.63;;;1.13;;
39620;SDS011;25309;48.686;9.170;2024-02-14T10:38:08;2.03;;;1.30;;
39620;SDS011;25309;48.686;9.170;2024-02-14T10:40:37;1.70;;;1.00;;
39620;SDS011;25309;48.686;9.170;2024-02-14T10:43:04;3.80;;;1.20;;
39620;SDS011;25309;48.686;9.170;2024-02-14T10:45:32;1.33;;;1.00;;
39620;SDS011;25309;48.686;9.170;2024-02-14T10:47:59;3.07;;;1.20;;
39620;SDS011;25309;48.686;9.170;2024-02-14T10:50:27;1.20;;;1.10;;
39620;SDS011;25309;48.686;9.170;2024-02-14T10:52:57;2.07;;;1.13;;
39620;SDS011;25309;48.686;9.170;2024-02-14T10:55:30;1.63;;;1.10;;
39620;SDS011;25309;48.686;9.170;2024-02-14T10:57:58;2.63;;;1.10;;
39620;SDS011;25309;48.686;9.170;2024-02-14T11:00:26;2.37;;;1.23;;
39620;SDS011;25309;48.686;9.170;2024-02-14T11:02:54;1.53;;;1.00;;
39620;SDS011;25309;48.686;9.170;2024-02-14T11:05:22;1.97;;;1.03;;
39620;SDS011;25309;48.686;9.170;2024-02-14T11:07:50;1.20;;;1.10;;
39620;SDS011;25309;48.686;9.170;2024-02-14T11:10:21;4.17;;;1.40;;
39620;SDS011;25309;48.686;9.170;2024-02-14T11:12:48;1.60;;;1.20;;
39620;SDS011;25309;48.686;9.170;2024-02-14T11:15:18;2.13;;;1.17;;
39620;SDS011;25309;48.686;9.170;2024-02-14T11:17:46;1.63;;;1.10;;
39620;SDS011;25309;48.686;9.170;2024-02-14T11:20:21;1.60;;;1.03;;
39620;SDS011;25309;48.686;9.170;2024-02-14T11:23:00;1.87;;;1.00;;
39620;SDS011;25309;48.686;9.170;2024-02-14T11:25:31;3.00;;;1.30;;
39620;SDS011;25309;48.686;9.170;2024-02-14T11:27:59;2.57;;;1.37;;
39620;SDS011;25309;48.686;9.170;2024-02-14T11:30:29;2.03;;;1.20;;
39620;SDS011;25309;48.686;9.170;2024-02-14T11:33:09;2.27;;;1.30;;
39620;SDS011;25309;48.686;9.170;2024-02-14T11:35:39;2.73;;;1.23;;
39620;SDS011;25309;48.686;9.170;2024-02-14T11:38:06;2.63;;;1.30;;
39620;SDS011;25309;48.686;9.170;2024-02-14T11:40:35;3.77;;;1.50;;
39620;SDS011;25309;48.686;9.170;2024-02-14T11:43:04;2.30;;;1.40;;
39620;SDS011;25309;48.686;9.170;2024-02-14T11:45:31;1.70;;;1.33;;
39620;SDS011;25309;48.686;9.170;2024-02-14T11:47:58;1.40;;;1.10;;
39620;SDS011;25309;48.686;9.170;2024-02-14T11:50:25;2.47;;;1.10;;
39620;SDS011;25309;48.686;9.170;2024-02-14T11:52:52;1.80;;;1.40;;
39620;SDS011;25309;48.686;9.170;2024-02-14T11:55:20;2.67;;;1.20;;
39620;SDS011;25309;48.686;9.170;2024-02-14T11:57:55;1.67;;;1.00;;
39620;SDS011;25309;48.686;9.170;2024-02-14T12:00:22;2.67;;;0.70;;
39620;SDS011;25309;48.686;9.170;2024-02-14T12:02:50;1.63;;;1.00;;
39620;SDS011;25309;48.686;9.170;2024-02-14T12:05:18;1.00;;;0.60;;
39620;SDS011;25309;48.686;9.170;2024-02-14T12:07:45;0.53;;;0.43;;
39620;SDS011;25309;48.686;9.170;2024-02-14T12:10:13;2.50;;;0.60;;
39620;SDS011;25309;48.686;9.170;2024-02-14T12:12:40;0.60;;;0.50;;
39620;SDS011;25309;48.686;9.170;2024-02-14T12:15:10;1.53;;;0.70;;
39620;SDS011;25309;48.686;9.170;2024-02-14T12:17:37;0.50;;;0.50;;
39620;SDS011;25309;48.686;9.170;2024-02-14T12:20:05;1.53;;;0.60;;
39620;SDS011;25309;48.686;9.170;2024-02-14T12:22:35;0.97;;;0.50;;
39620;SDS011;25309;48.686;9.170;2024-02-14T12:25:03;1.03;;;0.70;;
39620;SDS011;25309;48.686;9.170;2024-02-14T12:27:33;0.73;;;0.47;;
39620;SDS011;25309;48.686;9.170;2024-02-14T12:30:02;0.47;;;0.47;;
39620;SDS011;25309;48.686;9.170;2024-02-14T12:32:32;1.70;;;1.20;;
39620;SDS011;25309;48.686;9.170;2024-02-14T12:35:00;1.33;;;0.40;;
39620;SDS011;25309;48.686;9.170;2024-02-14T12:37:27;1.13;;;0.53;;
39620;SDS011;25309;48.686;9.170;2024-02-14T12:39:54;1.73;;;0.60;;
39620;SDS011;25309;48.686;9.170;2024-02-14T12:42:21;2.13;;;0.90;;
39620;SDS011;25309;48.686;9.170;2024-02-14T12:44:52;0.60;;;0.60;;
39620;SDS011;25309;48.686;9.170;2024-02-14T12:47:20;0.77;;;0.50;;
39620;SDS011;25309;48.686;9.170;2024-02-14T12:49:49;1.30;;;0.80;;
39620;SDS011;25309;48.686;9.170;2024-02-14T12:52:16;0.60;;;0.53;;
39620;SDS011;25309;48.686;9.170;2024-02-14T12:54:43;0.70;;;0.70;;
39620;SDS011;25309;48.686;9.170;2024-02-14T12:57:14;2.63;;;0.70;;
39620;SDS011;25309;48.686;9.170;2024-02-14T12:59:42;0.67;;;0.60;;
39620;SDS011;25309;48.686;9.170;2024-02-14T13:02:09;0.93;;;0.60;;
39620;SDS011;25309;48.686;9.170;2024-02-14T13:04:36;1.20;;;0.90;;
39620;SDS011;25309;48.686;9.170;2024-02-14T13:07:04;1.63;;;1.33;;
39620;SDS011;25309;48.686;9.170;2024-02-14T13:09:31;2.97;;;1.63;;
39620;SDS011;25309;48.686;9.170;2024-02-14T13:11:58;1.67;;;1.03;;
39620;SDS011;25309;48.686;9.170;2024-02-14T13:14:25;2.33;;;1.40;;
39620;SDS011;25309;48.686;9.170;2024-02-14T13:16:53;1.53;;;0.90;;
39620;SDS011;25309;48.686;9.170;2024-02-14T13:19:19;1.77;;;1.00;;
39620;SDS011;25309;48.686;9.170;2024-02-14T13:21:47;1.00;;;0.73;;
39620;SDS011;25309;48.686;9.170;2024-02-14T13:24:16;2.30;;;1.27;;
39620;SDS011;25309;48.686;9.170;2024-02-14T13:26:44;2.27;;;1.10;;
39620;SDS011;25309;48.686;9.170;2024-02-14T13:29:11;1.10;;;0.90;;
39620;SDS011;25309;48.686;9.170;2024-02-14T13:31:38;1.20;;;0.90;;
39620;SDS011;25309;48.686;9.170;2024-02-14T13:34:05;2.80;;;0.90;;
39620;SDS011;25309;48.686;9.170;2024-02-14T13:36:32;1.47;;;0.70;;
39620;SDS011;25309;48.686;9.170;2024-02-14T13:38:59;2.30;;;1.10;;
39620;SDS011;25309;48.686;9.170;2024-02-14T13:41:28;1.30;;;0.90;;
39620;SDS011;25309;48.686;9.170;2024-02-14T13:43:56;1.37;;;0.90;;
39620;SDS011;25309;48.686;9.170;2024-02-14T13:46:23;0.70;;;0.60;;
39620;SDS011;25309;48.686;9.170;2024-02-14T13:48:52;0.67;;;0.47;;
39620;SDS011;25309;48.686;9.170;2024-02-14T13:51:19;1.30;;;0.87;;
39620;SDS011;25309;48.686;9.170;2024-02-14T13:53:47;0.50;;;0.50;;
39620;SDS011;25309;48.686;9.170;2024-02-14T13:56:15;2.63;;;0.57;;
39620;SDS011;25309;48.686;9.170;2024-02-14T13:58:44;0.50;;;0.50;;
39620;SDS011;25309;48.686;9.170;2024-02-14T14:01:11;0.63;;;0.50;;
39620;SDS011;25309;48.686;9.170;2024-02-14T14:03:38;0.60;;;0.50;;
39620;SDS011;25309;48.686;9.170;2024-02-14T14:06:07;0.53;;;0.50;;
39620;SDS011;25309;48.686;9.170;2024-02-14T14:08:34;0.70;;;0.40;;
39620;SDS011;25309;48.686;9.170;2024-02-14T14:11:02;0.40;;;0.40;;
39620;SDS011;25309;48.686;9.170;2024-02-14T14:13:29;1.50;;;0.60;;
39620;SDS011;25309;48.686;9.170;2024-02-14T14:16:00;1.23;;;0.70;;
39620;SDS011;25309;48.686;9.170;2024-02-14T14:18:27;0.83;;;0.60;;
39620;SDS011;25309;48.686;9.170;2024-02-14T14:20:55;0.70;;;0.30;;
39620;SDS011;25309;48.686;9.170;2024-02-14T14:23:22;1.73;;;0.70;;
39620;SDS011;25309;48.686;9.170;2024-02-14T14:25:49;0.60;;;0.60;;
39620;SDS011;25309;48.686;9.170;2024-02-14T14:28:16;1.00;;;0.73;;
39620;SDS011;25309;48.686;9.170;2024-02-14T14:30:44;2.40;;;0.40;;
39620;SDS011;25309;48.686;9.170;2024-02-14T14:33:12;0.70;;;0.40;;
39620;SDS011;25309;48.686;9.170;2024-02-14T14:35:44;0.90;;;0.50;;
39620;SDS011;25309;48.686;9.170;2024-02-14T14:38:12;1.00;;;0.50;;
39620;SDS011;25309;48.686;9.170;2024-02-14T14:40:39;0.63;;;0.50;;
39620;SDS011;25309;48.686;9.170;2024-02-14T14:43:06;0.50;;;0.50;;
39620;SDS011;25309;48.686;9.170;2024-02-14T14:45:36;3.27;;;0.57;;
39620;SDS011;25309;48.686;9.170;2024-02-14T14:48:04;1.70;;;0.60;;
39620;SDS011;25309;48.686;9.170;2024-02-14T14:50:35;0.87;;;0.70;;
39620;SDS011;25309;48.686;9.170;2024-02-14T14:53:03;0.57;;;0.50;;